Suez Canal Bridge — HODM — position and weather

sailwx.info

Track history (hours):
 
Tides and Currents Weather Stations Pressure Air Temp Water Temp Dewpoint Dewpoint Depression Visibility Wind Speed Wind Dir Waves Ship Positions

Suez Canal Bridge

Last reported at 2014-Jul-28 05:32 UTC. Time now 2014-Aug-01 16:00 UTC.
Position N 33°21' W 076°39'.

Length 284.7 m; beam 40 m.

Type: Cargo ship. MMSI: 353704000.

Date/timePositionNaut miles runAvg speedWind from/ knotsBaromVisibWave heightAir tempDewpointWater temp
2014-Jul-28 05:32N 33°21' W 076°39'1414.3
2014-Jul-28 04:33N 33°15' W 076°54'1413.8
2014-Jul-28 03:33N 33°09' W 077°09'19212.8
2014-Jul-27 12:30N 31°56' W 080°40'1313.3
2014-Jul-27 11:34N 32°02' W 080°53'9 8.9
2014-Jul-27 10:33N 32°05' W 081°03'4 4.0
2014-Jul-27 09:33N 32°06' W 081°07'2 1.3
2014-Jul-27 08:13N 32°08' W 081°08'0 0.0
2014-Jul-27 07:33N 32°08' W 081°08'0 0.0
2014-Jul-27 06:32N 32°08' W 081°08'0 0.0
2014-Jul-27 05:25N 32°08' W 081°08'0 0.0
2014-Jul-27 04:33N 32°08' W 081°08'0 0.0
2014-Jul-27 03:33N 32°08' W 081°08'0 0.0
2014-Jul-26 20:34N 32°08' W 081°08'0 0.0
2014-Jul-26 17:32N 32°08' W 081°08'0 0.0
2014-Jul-26 15:25N 32°08' W 081°08'0 0.0
2014-Jul-26 14:33N 32°08' W 081°08'1 1.0
2014-Jul-26 13:33N 32°07' W 081°08'6 6.0
2014-Jul-26 12:33N 32°06' W 081°01'29316.8
2014-Jul-25 19:09N 34°31' W 075°56'13918.0
2014-Jul-25 11:26N 36°50' W 075°48'1416.1
2014-Jul-25 10:33N 36°58' W 076°03'1412.5
2014-Jul-25 09:27N 36°56' W 076°20'3 1.5
2014-Jul-25 07:15N 36°52' W 076°21'0 0.0
2014-Jul-25 06:32N 36°52' W 076°21'0 0.0
2014-Jul-25 05:32N 36°52' W 076°21'0 0.0
2014-Jul-25 04:29N 36°52' W 076°21'0 0.0
2014-Jul-25 03:33N 36°52' W 076°21'0 0.0
2014-Jul-25 02:33N 36°52' W 076°21'0 0.0
2014-Jul-25 01:33N 36°52' W 076°21'0 0.0
2014-Jul-25 00:33N 36°52' W 076°21'0 0.0
2014-Jul-24 23:33N 36°52' W 076°21'0 0.0
2014-Jul-24 22:33N 36°52' W 076°21'0 0.0
2014-Jul-24 21:33N 36°52' W 076°21'0 0.0
2014-Jul-24 20:33N 36°52' W 076°21'0 0.0
2014-Jul-24 19:33N 36°52' W 076°21'0 0.0
2014-Jul-24 18:33N 36°52' W 076°21'0 0.0
2014-Jul-24 17:32N 36°52' W 076°21'0 0.0
2014-Jul-24 16:31N 36°52' W 076°21'0 0.0
2014-Jul-24 15:31N 36°52' W 076°21'0 0.0
2014-Jul-24 14:25N 36°52' W 076°21'0 0.0
2014-Jul-24 12:29N 36°52' W 076°21'0 0.0
2014-Jul-24 10:27N 36°52' W 076°21'0 0.0
2014-Jul-24 08:29N 36°52' W 076°21'0 0.0
2014-Jul-24 07:29N 36°52' W 076°21'0 0.0
2014-Jul-24 06:28N 36°52' W 076°21'0 0.0
2014-Jul-24 05:33N 36°52' W 076°21'0 0.0
2014-Jul-24 04:31N 36°52' W 076°21'0 0.0
2014-Jul-24 03:32N 36°52' W 076°21'0 0.0
2014-Jul-24 02:28N 36°52' W 076°21'3 3.3
2014-Jul-24 01:29N 36°56' W 076°20'1011.0
2014-Jul-24 00:33N 36°59' W 076°08'2110.5
2014-Jul-23 22:31N 36°49' W 075°44'1010.8
2014-Jul-23 21:33N 36°54' W 075°33'4 2.0
2014-Jul-23 19:30N 36°58' W 075°30'29 4.2
2014-Jul-23 12:33N 37°23' W 075°11'1612.7
2014-Jul-23 11:15N 37°37' W 075°01'912.8
2014-Jul-23 10:32N 37°45' W 074°56'1212.8
2014-Jul-23 09:33N 37°56' W 074°48'1313.0
2014-Jul-23 08:33N 38°08' W 074°40'1313.0
2014-Jul-23 07:33N 38°19' W 074°32'1312.9
2014-Jul-23 06:33N 38°30' W 074°24'1312.8
2014-Jul-23 05:33N 38°42' W 074°16'1312.9
2014-Jul-23 04:33N 38°53' W 074°08'1312.8
2014-Jul-23 03:33N 39°04' W 073°60'1312.9
2014-Jul-23 02:33N 39°16' W 073°55'1313.0
2014-Jul-23 01:33N 39°29' W 073°53'1312.7
2014-Jul-23 00:33N 39°42' W 073°52'10 9.7
2014-Jul-22 23:33N 39°51' W 073°51'2019.8
2014-Jul-22 22:33N 40°12' W 073°50'1515.2
2014-Jul-22 21:33N 40°27' W 073°50'1616.1
2014-Jul-22 20:33N 40°39' W 074°04'4 4.1
2014-Jul-22 19:28N 40°41' W 074°09'0 0.0
2014-Jul-22 18:34N 40°41' W 074°09'0 0.0
2014-Jul-22 17:34N 40°41' W 074°09'0 0.0
2014-Jul-22 16:33N 40°41' W 074°09'0 0.0
2014-Jul-22 15:33N 40°41' W 074°09'0 0.0
2014-Jul-22 14:34N 40°41' W 074°09'0 0.0
2014-Jul-22 13:33N 40°41' W 074°09'0 0.0
2014-Jul-22 12:33N 40°41' W 074°09'0 0.0
2014-Jul-22 11:34N 40°41' W 074°09'0 0.0
2014-Jul-22 10:33N 40°41' W 074°09'0 0.0
2014-Jul-22 09:34N 40°41' W 074°09'0 0.0
2014-Jul-22 08:33N 40°41' W 074°09'0 0.0
2014-Jul-22 07:33N 40°41' W 074°09'0 0.0
2014-Jul-22 06:34N 40°41' W 074°09'0 0.0
2014-Jul-22 05:34N 40°41' W 074°09'0 0.0
2014-Jul-22 04:34N 40°41' W 074°09'0 0.0
2014-Jul-22 03:33N 40°41' W 074°09'0 0.0
2014-Jul-22 02:33N 40°41' W 074°09'0 0.0
2014-Jul-22 01:33N 40°41' W 074°09'0 0.0
2014-Jul-22 00:33N 40°41' W 074°09'0 0.0
2014-Jul-21 23:34N 40°41' W 074°09'0 0.0
2014-Jul-21 22:33N 40°41' W 074°09'0 0.0
2014-Jul-21 21:33N 40°41' W 074°09'0 0.0
2014-Jul-21 20:34N 40°41' W 074°09'0 0.0
2014-Jul-21 20:18N 40°41' W 074°09'0 0.0
2014-Jul-21 19:34N 40°41' W 074°09'0 0.0
2014-Jul-21 18:33N 40°41' W 074°09'0 0.0
2014-Jul-21 17:34N 40°41' W 074°09'0 0.0
2014-Jul-21 16:34N 40°41' W 074°09'0 0.0
2014-Jul-21 15:33N 40°41' W 074°09'0 0.0
2014-Jul-21 14:33N 40°41' W 074°09'0 0.0
2014-Jul-21 13:33N 40°41' W 074°09'0 0.0
2014-Jul-21 12:33N 40°41' W 074°09'0 0.0
2014-Jul-21 11:33N 40°41' W 074°09'0 0.0
2014-Jul-21 10:33N 40°41' W 074°09'0 0.0
2014-Jul-21 09:34N 40°41' W 074°09'0 0.0
2014-Jul-21 08:34N 40°41' W 074°09'0 0.0
2014-Jul-21 07:34N 40°41' W 074°09'0 0.0
2014-Jul-21 06:34N 40°41' W 074°09'0 0.0
2014-Jul-21 05:33N 40°41' W 074°09'0 0.0
2014-Jul-21 04:34N 40°41' W 074°09'1 0.8
2014-Jul-21 03:33N 40°40' W 074°08'5 4.8
2014-Jul-21 02:34N 40°38' W 074°03'  
Track history (hours):
 
Tides and Currents Weather Stations Pressure Air Temp Water Temp Dewpoint Dewpoint Depression Visibility Wind Speed Wind Dir Waves Ship Positions

Suez Canal Bridge

Last reported at 2014-Jul-28 05:32 UTC. Time now 2014-Aug-01 16:00 UTC.
Position N 33°21' W 076°39'.

Length 284.7 m; beam 40 m.

Type: Cargo ship. MMSI: 353704000.

Date/timePositionNaut miles runAvg speedWind from/ knotsBaromVisibWave heightAir tempDewpointWater temp
2014-Jul-28 05:32N 33°21' W 076°39'1414.3
2014-Jul-28 04:33N 33°15' W 076°54'1413.8
2014-Jul-28 03:33N 33°09' W 077°09'19212.8
2014-Jul-27 12:30N 31°56' W 080°40'1313.3
2014-Jul-27 11:34N 32°02' W 080°53'9 8.9
2014-Jul-27 10:33N 32°05' W 081°03'4 4.0
2014-Jul-27 09:33N 32°06' W 081°07'2 1.3
2014-Jul-27 08:13N 32°08' W 081°08'0 0.0
2014-Jul-27 07:33N 32°08' W 081°08'0 0.0
2014-Jul-27 06:32N 32°08' W 081°08'0 0.0
2014-Jul-27 05:25N 32°08' W 081°08'0 0.0
2014-Jul-27 04:33N 32°08' W 081°08'0 0.0
2014-Jul-27 03:33N 32°08' W 081°08'0 0.0
2014-Jul-26 20:34N 32°08' W 081°08'0 0.0
2014-Jul-26 17:32N 32°08' W 081°08'0 0.0
2014-Jul-26 15:25N 32°08' W 081°08'0 0.0
2014-Jul-26 14:33N 32°08' W 081°08'1 1.0
2014-Jul-26 13:33N 32°07' W 081°08'6 6.0
2014-Jul-26 12:33N 32°06' W 081°01'29316.8
2014-Jul-25 19:09N 34°31' W 075°56'13918.0
2014-Jul-25 11:26N 36°50' W 075°48'1416.1
2014-Jul-25 10:33N 36°58' W 076°03'1412.5
2014-Jul-25 09:27N 36°56' W 076°20'3 1.5
2014-Jul-25 07:15N 36°52' W 076°21'0 0.0
2014-Jul-25 06:32N 36°52' W 076°21'0 0.0
2014-Jul-25 05:32N 36°52' W 076°21'0 0.0
2014-Jul-25 04:29N 36°52' W 076°21'0 0.0
2014-Jul-25 03:33N 36°52' W 076°21'0 0.0
2014-Jul-25 02:33N 36°52' W 076°21'0 0.0
2014-Jul-25 01:33N 36°52' W 076°21'0 0.0
2014-Jul-25 00:33N 36°52' W 076°21'0 0.0
2014-Jul-24 23:33N 36°52' W 076°21'0 0.0
2014-Jul-24 22:33N 36°52' W 076°21'0 0.0
2014-Jul-24 21:33N 36°52' W 076°21'0 0.0
2014-Jul-24 20:33N 36°52' W 076°21'0 0.0
2014-Jul-24 19:33N 36°52' W 076°21'0 0.0
2014-Jul-24 18:33N 36°52' W 076°21'0 0.0
2014-Jul-24 17:32N 36°52' W 076°21'0 0.0
2014-Jul-24 16:31N 36°52' W 076°21'0 0.0
2014-Jul-24 15:31N 36°52' W 076°21'0 0.0
2014-Jul-24 14:25N 36°52' W 076°21'0 0.0
2014-Jul-24 12:29N 36°52' W 076°21'0 0.0
2014-Jul-24 10:27N 36°52' W 076°21'0 0.0
2014-Jul-24 08:29N 36°52' W 076°21'0 0.0
2014-Jul-24 07:29N 36°52' W 076°21'0 0.0
2014-Jul-24 06:28N 36°52' W 076°21'0 0.0
2014-Jul-24 05:33N 36°52' W 076°21'0 0.0
2014-Jul-24 04:31N 36°52' W 076°21'0 0.0
2014-Jul-24 03:32N 36°52' W 076°21'0 0.0
2014-Jul-24 02:28N 36°52' W 076°21'3 3.3
2014-Jul-24 01:29N 36°56' W 076°20'1011.0
2014-Jul-24 00:33N 36°59' W 076°08'2110.5
2014-Jul-23 22:31N 36°49' W 075°44'1010.8
2014-Jul-23 21:33N 36°54' W 075°33'4 2.0
2014-Jul-23 19:30N 36°58' W 075°30'29 4.2
2014-Jul-23 12:33N 37°23' W 075°11'1612.7
2014-Jul-23 11:15N 37°37' W 075°01'912.8
2014-Jul-23 10:32N 37°45' W 074°56'1212.8
2014-Jul-23 09:33N 37°56' W 074°48'1313.0
2014-Jul-23 08:33N 38°08' W 074°40'1313.0
2014-Jul-23 07:33N 38°19' W 074°32'1312.9
2014-Jul-23 06:33N 38°30' W 074°24'1312.8
2014-Jul-23 05:33N 38°42' W 074°16'1312.9
2014-Jul-23 04:33N 38°53' W 074°08'1312.8
2014-Jul-23 03:33N 39°04' W 073°60'1312.9
2014-Jul-23 02:33N 39°16' W 073°55'1313.0
2014-Jul-23 01:33N 39°29' W 073°53'1312.7
2014-Jul-23 00:33N 39°42' W 073°52'10 9.7
2014-Jul-22 23:33N 39°51' W 073°51'2019.8
2014-Jul-22 22:33N 40°12' W 073°50'1515.2
2014-Jul-22 21:33N 40°27' W 073°50'1616.1
2014-Jul-22 20:33N 40°39' W 074°04'4 4.1
2014-Jul-22 19:28N 40°41' W 074°09'0 0.0
2014-Jul-22 18:34N 40°41' W 074°09'0 0.0
2014-Jul-22 17:34N 40°41' W 074°09'0 0.0
2014-Jul-22 16:33N 40°41' W 074°09'0 0.0
2014-Jul-22 15:33N 40°41' W 074°09'0 0.0
2014-Jul-22 14:34N 40°41' W 074°09'0 0.0
2014-Jul-22 13:33N 40°41' W 074°09'0 0.0
2014-Jul-22 12:33N 40°41' W 074°09'0 0.0
2014-Jul-22 11:34N 40°41' W 074°09'0 0.0
2014-Jul-22 10:33N 40°41' W 074°09'0 0.0
2014-Jul-22 09:34N 40°41' W 074°09'0 0.0
2014-Jul-22 08:33N 40°41' W 074°09'0 0.0
2014-Jul-22 07:33N 40°41' W 074°09'0 0.0
2014-Jul-22 06:34N 40°41' W 074°09'0 0.0
2014-Jul-22 05:34N 40°41' W 074°09'0 0.0
2014-Jul-22 04:34N 40°41' W 074°09'0 0.0
2014-Jul-22 03:33N 40°41' W 074°09'0 0.0
2014-Jul-22 02:33N 40°41' W 074°09'0 0.0
2014-Jul-22 01:33N 40°41' W 074°09'0 0.0
2014-Jul-22 00:33N 40°41' W 074°09'0 0.0
2014-Jul-21 23:34N 40°41' W 074°09'0 0.0
2014-Jul-21 22:33N 40°41' W 074°09'0 0.0
2014-Jul-21 21:33N 40°41' W 074°09'0 0.0
2014-Jul-21 20:34N 40°41' W 074°09'0 0.0
2014-Jul-21 20:18N 40°41' W 074°09'0 0.0
2014-Jul-21 19:34N 40°41' W 074°09'0 0.0
2014-Jul-21 18:33N 40°41' W 074°09'0 0.0
2014-Jul-21 17:34N 40°41' W 074°09'0 0.0
2014-Jul-21 16:34N 40°41' W 074°09'0 0.0
2014-Jul-21 15:33N 40°41' W 074°09'0 0.0
2014-Jul-21 14:33N 40°41' W 074°09'0 0.0
2014-Jul-21 13:33N 40°41' W 074°09'0 0.0
2014-Jul-21 12:33N 40°41' W 074°09'0 0.0
2014-Jul-21 11:33N 40°41' W 074°09'0 0.0
2014-Jul-21 10:33N 40°41' W 074°09'0 0.0
2014-Jul-21 09:34N 40°41' W 074°09'0 0.0
2014-Jul-21 08:34N 40°41' W 074°09'0 0.0
2014-Jul-21 07:34N 40°41' W 074°09'0 0.0
2014-Jul-21 06:34N 40°41' W 074°09'0 0.0
2014-Jul-21 05:33N 40°41' W 074°09'0 0.0
2014-Jul-21 04:34N 40°41' W 074°09'1 0.8
2014-Jul-21 03:33N 40°40' W 074°08'5 4.8
2014-Jul-21 02:34N 40°38' W 074°03'  

Dump ship's entire track history